sensor_id;sensor_type;location;lat;lon;timestamp;P1;durP1;ratioP1;P2;durP2;ratioP2
18174;SDS011;9212;50.894;16.714;2023-07-20T00:02:15;4.37;;;2.37;;
18174;SDS011;9212;50.894;16.714;2023-07-20T00:04:42;3.03;;;2.17;;
18174;SDS011;9212;50.894;16.714;2023-07-20T00:07:10;4.33;;;2.27;;
18174;SDS011;9212;50.894;16.714;2023-07-20T00:09:38;3.57;;;2.00;;
18174;SDS011;9212;50.894;16.714;2023-07-20T00:12:06;3.37;;;2.20;;
18174;SDS011;9212;50.894;16.714;2023-07-20T00:14:34;3.57;;;2.43;;
18174;SDS011;9212;50.894;16.714;2023-07-20T00:17:02;3.53;;;2.30;;
18174;SDS011;9212;50.894;16.714;2023-07-20T00:19:29;4.57;;;2.30;;
18174;SDS011;9212;50.894;16.714;2023-07-20T00:21:57;2.50;;;2.20;;
18174;SDS011;9212;50.894;16.714;2023-07-20T00:24:25;5.90;;;2.50;;
18174;SDS011;9212;50.894;16.714;2023-07-20T00:26:54;4.40;;;2.10;;
18174;SDS011;9212;50.894;16.714;2023-07-20T00:29:21;2.10;;;1.90;;
18174;SDS011;9212;50.894;16.714;2023-07-20T00:31:48;5.90;;;2.00;;
18174;SDS011;9212;50.894;16.714;2023-07-20T00:34:15;3.00;;;2.07;;
18174;SDS011;9212;50.894;16.714;2023-07-20T00:36:42;3.10;;;1.90;;
18174;SDS011;9212;50.894;16.714;2023-07-20T00:39:10;3.23;;;1.70;;
18174;SDS011;9212;50.894;16.714;2023-07-20T00:41:37;2.90;;;1.70;;
18174;SDS011;9212;50.894;16.714;2023-07-20T00:44:05;9.97;;;1.90;;
18174;SDS011;9212;50.894;16.714;2023-07-20T00:46:33;2.43;;;1.50;;
18174;SDS011;9212;50.894;16.714;2023-07-20T00:49:00;2.63;;;1.40;;
18174;SDS011;9212;50.894;16.714;2023-07-20T00:51:28;4.00;;;2.00;;
18174;SDS011;9212;50.894;16.714;2023-07-20T00:53:55;3.20;;;1.60;;
18174;SDS011;9212;50.894;16.714;2023-07-20T00:56:22;2.13;;;1.93;;
18174;SDS011;9212;50.894;16.714;2023-07-20T00:58:50;2.10;;;1.90;;
18174;SDS011;9212;50.894;16.714;2023-07-20T01:01:19;3.43;;;2.90;;
18174;SDS011;9212;50.894;16.714;2023-07-20T01:03:46;1.73;;;1.63;;
18174;SDS011;9212;50.894;16.714;2023-07-20T01:06:15;2.73;;;1.53;;
18174;SDS011;9212;50.894;16.714;2023-07-20T01:08:47;2.73;;;1.60;;
18174;SDS011;9212;50.894;16.714;2023-07-20T01:11:22;1.67;;;1.50;;
18174;SDS011;9212;50.894;16.714;2023-07-20T01:13:50;2.17;;;1.60;;
18174;SDS011;9212;50.894;16.714;2023-07-20T01:16:18;1.47;;;1.37;;
18174;SDS011;9212;50.894;16.714;2023-07-20T01:18:45;1.50;;;1.40;;
18174;SDS011;9212;50.894;16.714;2023-07-20T01:21:15;1.50;;;1.20;;
18174;SDS011;9212;50.894;16.714;2023-07-20T01:24:02;1.43;;;1.23;;
18174;SDS011;9212;50.894;16.714;2023-07-20T01:26:45;7.73;;;1.70;;
18174;SDS011;9212;50.894;16.714;2023-07-20T01:29:22;1.50;;;1.10;;
18174;SDS011;9212;50.894;16.714;2023-07-20T01:31:56;2.53;;;1.20;;
18174;SDS011;9212;50.894;16.714;2023-07-20T01:34:24;1.13;;;1.03;;
18174;SDS011;9212;50.894;16.714;2023-07-20T01:36:52;1.30;;;1.00;;
18174;SDS011;9212;50.894;16.714;2023-07-20T01:39:20;3.40;;;0.97;;
18174;SDS011;9212;50.894;16.714;2023-07-20T01:41:47;1.20;;;1.10;;
18174;SDS011;9212;50.894;16.714;2023-07-20T01:44:15;1.40;;;0.97;;
18174;SDS011;9212;50.894;16.714;2023-07-20T01:46:42;1.70;;;1.33;;
18174;SDS011;9212;50.894;16.714;2023-07-20T01:49:11;3.90;;;1.00;;
18174;SDS011;9212;50.894;16.714;2023-07-20T01:51:38;2.83;;;1.13;;
18174;SDS011;9212;50.894;16.714;2023-07-20T01:54:05;0.93;;;0.93;;
18174;SDS011;9212;50.894;16.714;2023-07-20T01:56:32;1.07;;;0.97;;
18174;SDS011;9212;50.894;16.714;2023-07-20T01:59:00;1.40;;;1.23;;
18174;SDS011;9212;50.894;16.714;2023-07-20T02:01:27;1.07;;;1.07;;
18174;SDS011;9212;50.894;16.714;2023-07-20T02:03:54;1.00;;;1.00;;
18174;SDS011;9212;50.894;16.714;2023-07-20T02:06:23;1.23;;;1.20;;
18174;SDS011;9212;50.894;16.714;2023-07-20T02:08:51;2.50;;;1.17;;
18174;SDS011;9212;50.894;16.714;2023-07-20T02:11:18;3.10;;;1.10;;
18174;SDS011;9212;50.894;16.714;2023-07-20T02:13:45;1.30;;;1.03;;
18174;SDS011;9212;50.894;16.714;2023-07-20T02:16:12;1.23;;;1.13;;
18174;SDS011;9212;50.894;16.714;2023-07-20T02:18:39;1.17;;;1.17;;
18174;SDS011;9212;50.894;16.714;2023-07-20T02:21:07;1.67;;;1.00;;
18174;SDS011;9212;50.894;16.714;2023-07-20T02:23:36;1.50;;;1.10;;
18174;SDS011;9212;50.894;16.714;2023-07-20T02:26:03;4.67;;;1.40;;
18174;SDS011;9212;50.894;16.714;2023-07-20T02:28:30;1.20;;;1.10;;
18174;SDS011;9212;50.894;16.714;2023-07-20T02:30:57;1.93;;;1.27;;
18174;SDS011;9212;50.894;16.714;2023-07-20T02:33:25;1.37;;;1.27;;
18174;SDS011;9212;50.894;16.714;2023-07-20T02:35:52;2.57;;;1.50;;
18174;SDS011;9212;50.894;16.714;2023-07-20T02:38:20;3.70;;;1.20;;
18174;SDS011;9212;50.894;16.714;2023-07-20T02:40:49;1.40;;;1.30;;
18174;SDS011;9212;50.894;16.714;2023-07-20T02:43:16;3.73;;;1.70;;
18174;SDS011;9212;50.894;16.714;2023-07-20T02:45:43;2.13;;;1.80;;
18174;SDS011;9212;50.894;16.714;2023-07-20T02:48:11;3.60;;;1.77;;
18174;SDS011;9212;50.894;16.714;2023-07-20T02:50:38;1.63;;;1.47;;
18174;SDS011;9212;50.894;16.714;2023-07-20T02:53:05;3.20;;;1.70;;
18174;SDS011;9212;50.894;16.714;2023-07-20T02:55:32;2.37;;;1.60;;
18174;SDS011;9212;50.894;16.714;2023-07-20T02:58:01;1.57;;;1.47;;
18174;SDS011;9212;50.894;16.714;2023-07-20T03:00:28;2.97;;;1.57;;
18174;SDS011;9212;50.894;16.714;2023-07-20T03:02:56;4.73;;;1.50;;
18174;SDS011;9212;50.894;16.714;2023-07-20T03:05:23;2.50;;;1.60;;
18174;SDS011;9212;50.894;16.714;2023-07-20T03:07:51;3.00;;;1.73;;
18174;SDS011;9212;50.894;16.714;2023-07-20T03:10:18;2.50;;;2.07;;
18174;SDS011;9212;50.894;16.714;2023-07-20T03:12:45;2.83;;;2.10;;
18174;SDS011;9212;50.894;16.714;2023-07-20T03:15:14;3.90;;;2.00;;
18174;SDS011;9212;50.894;16.714;2023-07-20T03:17:41;4.77;;;2.63;;
18174;SDS011;9212;50.894;16.714;2023-07-20T03:20:09;5.13;;;2.43;;
18174;SDS011;9212;50.894;16.714;2023-07-20T03:22:37;3.10;;;2.57;;
18174;SDS011;9212;50.894;16.714;2023-07-20T03:25:05;4.93;;;2.90;;
18174;SDS011;9212;50.894;16.714;2023-07-20T03:27:33;4.07;;;2.77;;
18174;SDS011;9212;50.894;16.714;2023-07-20T03:30:00;4.43;;;2.43;;
18174;SDS011;9212;50.894;16.714;2023-07-20T03:32:29;4.00;;;2.60;;
18174;SDS011;9212;50.894;16.714;2023-07-20T03:34:56;4.97;;;2.77;;
18174;SDS011;9212;50.894;16.714;2023-07-20T03:37:23;5.30;;;2.60;;
18174;SDS011;9212;50.894;16.714;2023-07-20T03:39:50;4.07;;;2.80;;
18174;SDS011;9212;50.894;16.714;2023-07-20T03:42:17;4.37;;;2.33;;
18174;SDS011;9212;50.894;16.714;2023-07-20T03:44:45;5.43;;;2.83;;
18174;SDS011;9212;50.894;16.714;2023-07-20T03:47:12;8.97;;;3.13;;
18174;SDS011;9212;50.894;16.714;2023-07-20T03:49:41;4.33;;;2.70;;
18174;SDS011;9212;50.894;16.714;2023-07-20T03:52:08;4.13;;;2.83;;
18174;SDS011;9212;50.894;16.714;2023-07-20T03:54:35;4.20;;;3.20;;
18174;SDS011;9212;50.894;16.714;2023-07-20T03:57:03;5.60;;;3.30;;
18174;SDS011;9212;50.894;16.714;2023-07-20T03:59:30;7.70;;;3.50;;
18174;SDS011;9212;50.894;16.714;2023-07-20T04:01:58;6.47;;;3.37;;
18174;SDS011;9212;50.894;16.714;2023-07-20T04:04:25;5.50;;;3.77;;
18174;SDS011;9212;50.894;16.714;2023-07-20T04:06:54;6.10;;;3.20;;
18174;SDS011;9212;50.894;16.714;2023-07-20T04:09:21;10.47;;;3.50;;
18174;SDS011;9212;50.894;16.714;2023-07-20T04:11:48;5.17;;;3.63;;
18174;SDS011;9212;50.894;16.714;2023-07-20T04:14:16;4.72;;;3.13;;
18174;SDS011;9212;50.894;16.714;2023-07-20T04:16:43;5.57;;;3.13;;
18174;SDS011;9212;50.894;16.714;2023-07-20T04:19:10;5.40;;;3.53;;
18174;SDS011;9212;50.894;16.714;2023-07-20T04:21:39;5.20;;;3.50;;
18174;SDS011;9212;50.894;16.714;2023-07-20T04:24:08;4.40;;;3.97;;
18174;SDS011;9212;50.894;16.714;2023-07-20T04:26:36;5.33;;;4.23;;
18174;SDS011;9212;50.894;16.714;2023-07-20T04:29:03;6.10;;;3.83;;
18174;SDS011;9212;50.894;16.714;2023-07-20T04:31:30;7.03;;;4.20;;
18174;SDS011;9212;50.894;16.714;2023-07-20T04:33:59;8.85;;;4.35;;
18174;SDS011;9212;50.894;16.714;2023-07-20T04:36:26;7.77;;;4.77;;
18174;SDS011;9212;50.894;16.714;2023-07-20T04:38:53;5.43;;;4.10;;
18174;SDS011;9212;50.894;16.714;2023-07-20T04:41:22;11.02;;;4.03;;
18174;SDS011;9212;50.894;16.714;2023-07-20T04:43:50;4.83;;;3.60;;
18174;SDS011;9212;50.894;16.714;2023-07-20T04:46:17;5.68;;;3.72;;
18174;SDS011;9212;50.894;16.714;2023-07-20T04:48:46;6.60;;;3.70;;
18174;SDS011;9212;50.894;16.714;2023-07-20T04:51:13;8.73;;;3.53;;
18174;SDS011;9212;50.894;16.714;2023-07-20T04:53:42;4.15;;;3.65;;
18174;SDS011;9212;50.894;16.714;2023-07-20T04:56:09;5.17;;;3.70;;
18174;SDS011;9212;50.894;16.714;2023-07-20T04:58:38;7.87;;;3.77;;
18174;SDS011;9212;50.894;16.714;2023-07-20T05:01:05;5.80;;;3.90;;
18174;SDS011;9212;50.894;16.714;2023-07-20T05:03:32;9.73;;;4.23;;
18174;SDS011;9212;50.894;16.714;2023-07-20T05:05:59;4.87;;;4.00;;
18174;SDS011;9212;50.894;16.714;2023-07-20T05:08:26;6.47;;;4.77;;
18174;SDS011;9212;50.894;16.714;2023-07-20T05:10:54;9.73;;;4.70;;
18174;SDS011;9212;50.894;16.714;2023-07-20T05:13:21;8.07;;;4.50;;
18174;SDS011;9212;50.894;16.714;2023-07-20T05:15:52;8.07;;;4.33;;
18174;SDS011;9212;50.894;16.714;2023-07-20T05:18:19;11.32;;;5.47;;
18174;SDS011;9212;50.894;16.714;2023-07-20T05:20:47;6.57;;;4.97;;
18174;SDS011;9212;50.894;16.714;2023-07-20T05:23:14;8.37;;;4.90;;
18174;SDS011;9212;50.894;16.714;2023-07-20T05:25:41;8.90;;;5.37;;
18174;SDS011;9212;50.894;16.714;2023-07-20T05:28:09;7.23;;;5.10;;
18174;SDS011;9212;50.894;16.714;2023-07-20T05:30:36;9.30;;;5.53;;
18174;SDS011;9212;50.894;16.714;2023-07-20T05:33:04;10.43;;;6.20;;
18174;SDS011;9212;50.894;16.714;2023-07-20T05:35:32;11.60;;;5.93;;
18174;SDS011;9212;50.894;16.714;2023-07-20T05:37:59;7.60;;;5.75;;
18174;SDS011;9212;50.894;16.714;2023-07-20T05:40:26;8.38;;;5.43;;
18174;SDS011;9212;50.894;16.714;2023-07-20T05:42:54;9.23;;;5.65;;
18174;SDS011;9212;50.894;16.714;2023-07-20T05:45:22;8.18;;;5.35;;
18174;SDS011;9212;50.894;16.714;2023-07-20T05:47:49;11.27;;;5.10;;
18174;SDS011;9212;50.894;16.714;2023-07-20T05:50:18;11.27;;;5.07;;
18174;SDS011;9212;50.894;16.714;2023-07-20T05:52:45;13.57;;;5.63;;
18174;SDS011;9212;50.894;16.714;2023-07-20T05:55:13;10.20;;;6.13;;
18174;SDS011;9212;50.894;16.714;2023-07-20T05:57:40;11.30;;;5.93;;
18174;SDS011;9212;50.894;16.714;2023-07-20T06:00:11;12.10;;;6.32;;
18174;SDS011;9212;50.894;16.714;2023-07-20T06:02:39;7.07;;;5.82;;
18174;SDS011;9212;50.894;16.714;2023-07-20T06:05:07;11.25;;;5.68;;
18174;SDS011;9212;50.894;16.714;2023-07-20T06:07:37;12.48;;;5.60;;
18174;SDS011;9212;50.894;16.714;2023-07-20T06:10:05;7.07;;;5.90;;
18174;SDS011;9212;50.894;16.714;2023-07-20T06:12:32;10.98;;;5.85;;
18174;SDS011;9212;50.894;16.714;2023-07-20T06:15:01;13.23;;;6.20;;
18174;SDS011;9212;50.894;16.714;2023-07-20T06:17:29;8.85;;;5.93;;
18174;SDS011;9212;50.894;16.714;2023-07-20T06:19:56;7.43;;;5.85;;
18174;SDS011;9212;50.894;16.714;2023-07-20T06:22:24;11.82;;;6.03;;
18174;SDS011;9212;50.894;16.714;2023-07-20T06:24:52;33.65;;;8.27;;
18174;SDS011;9212;50.894;16.714;2023-07-20T06:27:19;14.65;;;6.32;;
18174;SDS011;9212;50.894;16.714;2023-07-20T06:29:47;8.73;;;5.60;;
18174;SDS011;9212;50.894;16.714;2023-07-20T06:32:14;6.05;;;4.65;;
18174;SDS011;9212;50.894;16.714;2023-07-20T06:34:41;27.00;;;6.88;;
18174;SDS011;9212;50.894;16.714;2023-07-20T06:37:08;14.70;;;5.15;;
18174;SDS011;9212;50.894;16.714;2023-07-20T06:39:35;8.57;;;4.35;;
18174;SDS011;9212;50.894;16.714;2023-07-20T06:42:04;4.80;;;3.65;;
18174;SDS011;9212;50.894;16.714;2023-07-20T06:44:32;7.60;;;4.13;;
18174;SDS011;9212;50.894;16.714;2023-07-20T06:46:59;5.63;;;3.95;;
18174;SDS011;9212;50.894;16.714;2023-07-20T06:49:26;9.32;;;4.35;;
18174;SDS011;9212;50.894;16.714;2023-07-20T06:51:54;8.02;;;3.90;;
18174;SDS011;9212;50.894;16.714;2023-07-20T06:54:21;8.45;;;4.10;;
18174;SDS011;9212;50.894;16.714;2023-07-20T06:56:48;7.57;;;3.65;;
18174;SDS011;9212;50.894;16.714;2023-07-20T06:59:17;5.13;;;3.50;;
18174;SDS011;9212;50.894;16.714;2023-07-20T07:01:44;9.13;;;3.40;;
18174;SDS011;9212;50.894;16.714;2023-07-20T07:04:11;6.82;;;3.45;;
18174;SDS011;9212;50.894;16.714;2023-07-20T07:06:38;6.60;;;3.40;;
18174;SDS011;9212;50.894;16.714;2023-07-20T07:09:06;4.40;;;3.10;;
18174;SDS011;9212;50.894;16.714;2023-07-20T07:11:33;7.78;;;3.70;;
18174;SDS011;9212;50.894;16.714;2023-07-20T07:14:01;8.45;;;3.63;;
18174;SDS011;9212;50.894;16.714;2023-07-20T07:16:29;5.75;;;3.50;;
18174;SDS011;9212;50.894;16.714;2023-07-20T07:18:56;5.70;;;3.65;;
18174;SDS011;9212;50.894;16.714;2023-07-20T07:21:24;6.47;;;4.13;;
18174;SDS011;9212;50.894;16.714;2023-07-20T07:23:51;10.23;;;3.80;;
18174;SDS011;9212;50.894;16.714;2023-07-20T07:26:22;5.68;;;4.20;;
18174;SDS011;9212;50.894;16.714;2023-07-20T07:28:50;7.55;;;4.60;;
18174;SDS011;9212;50.894;16.714;2023-07-20T07:31:17;6.70;;;4.20;;
18174;SDS011;9212;50.894;16.714;2023-07-20T07:33:46;5.25;;;3.42;;
18174;SDS011;9212;50.894;16.714;2023-07-20T07:36:13;4.47;;;4.07;;
18174;SDS011;9212;50.894;16.714;2023-07-20T07:38:41;10.48;;;4.80;;
18174;SDS011;9212;50.894;16.714;2023-07-20T07:41:08;5.85;;;3.78;;
18174;SDS011;9212;50.894;16.714;2023-07-20T07:43:35;7.70;;;3.60;;
18174;SDS011;9212;50.894;16.714;2023-07-20T07:46:03;4.65;;;3.50;;
18174;SDS011;9212;50.894;16.714;2023-07-20T07:48:31;7.80;;;3.65;;
18174;SDS011;9212;50.894;16.714;2023-07-20T07:50:59;11.95;;;4.03;;
18174;SDS011;9212;50.894;16.714;2023-07-20T07:53:27;6.80;;;3.90;;
18174;SDS011;9212;50.894;16.714;2023-07-20T07:55:54;4.53;;;3.55;;
18174;SDS011;9212;50.894;16.714;2023-07-20T07:58:21;5.53;;;3.08;;
18174;SDS011;9212;50.894;16.714;2023-07-20T08:00:48;6.25;;;3.22;;
18174;SDS011;9212;50.894;16.714;2023-07-20T08:03:16;6.03;;;2.97;;
18174;SDS011;9212;50.894;16.714;2023-07-20T08:05:43;7.25;;;2.70;;
18174;SDS011;9212;50.894;16.714;2023-07-20T08:08:12;6.18;;;3.00;;
18174;SDS011;9212;50.894;16.714;2023-07-20T08:10:39;5.07;;;2.30;;
18174;SDS011;9212;50.894;16.714;2023-07-20T08:13:07;2.38;;;2.15;;
18174;SDS011;9212;50.894;16.714;2023-07-20T08:15:34;6.18;;;2.55;;
18174;SDS011;9212;50.894;16.714;2023-07-20T08:18:01;2.28;;;1.70;;
18174;SDS011;9212;50.894;16.714;2023-07-20T08:20:28;5.15;;;1.90;;
18174;SDS011;9212;50.894;16.714;2023-07-20T08:22:57;3.17;;;1.83;;
18174;SDS011;9212;50.894;16.714;2023-07-20T08:25:26;3.33;;;1.90;;
18174;SDS011;9212;50.894;16.714;2023-07-20T08:27:53;4.90;;;1.80;;
18174;SDS011;9212;50.894;16.714;2023-07-20T08:30:21;4.78;;;2.33;;
18174;SDS011;9212;50.894;16.714;2023-07-20T08:32:48;5.22;;;1.70;;
18174;SDS011;9212;50.894;16.714;2023-07-20T08:35:15;2.38;;;1.48;;
18174;SDS011;9212;50.894;16.714;2023-07-20T08:37:43;17.73;;;2.97;;
18174;SDS011;9212;50.894;16.714;2023-07-20T08:40:11;9.88;;;2.15;;
18174;SDS011;9212;50.894;16.714;2023-07-20T08:42:40;7.35;;;2.05;;
18174;SDS011;9212;50.894;16.714;2023-07-20T08:45:08;3.92;;;1.17;;
18174;SDS011;9212;50.894;16.714;2023-07-20T08:47:36;2.10;;;1.27;;
18174;SDS011;9212;50.894;16.714;2023-07-20T08:50:04;2.35;;;1.20;;
18174;SDS011;9212;50.894;16.714;2023-07-20T08:52:33;2.13;;;1.50;;
18174;SDS011;9212;50.894;16.714;2023-07-20T08:55:01;2.25;;;1.15;;
18174;SDS011;9212;50.894;16.714;2023-07-20T08:57:29;2.25;;;1.33;;
18174;SDS011;9212;50.894;16.714;2023-07-20T09:00:01;5.25;;;1.60;;
18174;SDS011;9212;50.894;16.714;2023-07-20T09:02:31;2.10;;;1.35;;
18174;SDS011;9212;50.894;16.714;2023-07-20T09:05:02;2.45;;;1.27;;
18174;SDS011;9212;50.894;16.714;2023-07-20T09:07:29;3.42;;;1.77;;
18174;SDS011;9212;50.894;16.714;2023-07-20T09:09:58;9.05;;;4.95;;
18174;SDS011;9212;50.894;16.714;2023-07-20T09:12:30;1.50;;;1.23;;
18174;SDS011;9212;50.894;16.714;2023-07-20T09:14:58;3.50;;;1.50;;
18174;SDS011;9212;50.894;16.714;2023-07-20T09:17:27;1.38;;;1.27;;
18174;SDS011;9212;50.894;16.714;2023-07-20T09:19:54;2.00;;;1.10;;
18174;SDS011;9212;50.894;16.714;2023-07-20T09:22:21;4.88;;;1.17;;
18174;SDS011;9212;50.894;16.714;2023-07-20T09:24:49;1.00;;;1.00;;
18174;SDS011;9212;50.894;16.714;2023-07-20T09:27:19;2.90;;;1.30;;
18174;SDS011;9212;50.894;16.714;2023-07-20T09:29:49;3.95;;;1.40;;
18174;SDS011;9212;50.894;16.714;2023-07-20T09:32:20;3.03;;;1.20;;
18174;SDS011;9212;50.894;16.714;2023-07-20T09:34:50;3.42;;;1.23;;
18174;SDS011;9212;50.894;16.714;2023-07-20T09:37:19;2.58;;;1.30;;
18174;SDS011;9212;50.894;16.714;2023-07-20T09:39:47;5.22;;;1.23;;
18174;SDS011;9212;50.894;16.714;2023-07-20T09:42:15;1.40;;;1.30;;
18174;SDS011;9212;50.894;16.714;2023-07-20T09:44:43;4.82;;;1.15;;
18174;SDS011;9212;50.894;16.714;2023-07-20T09:47:10;22.50;;;2.60;;
18174;SDS011;9212;50.894;16.714;2023-07-20T09:49:39;4.97;;;1.30;;
18174;SDS011;9212;50.894;16.714;2023-07-20T09:52:08;4.93;;;1.52;;
18174;SDS011;9212;50.894;16.714;2023-07-20T09:54:36;1.65;;;1.30;;
18174;SDS011;9212;50.894;16.714;2023-07-20T09:57:04;5.05;;;1.33;;
18174;SDS011;9212;50.894;16.714;2023-07-20T09:59:34;1.30;;;1.20;;
18174;SDS011;9212;50.894;16.714;2023-07-20T10:02:02;2.13;;;1.45;;
18174;SDS011;9212;50.894;16.714;2023-07-20T10:04:32;1.73;;;1.35;;
18174;SDS011;9212;50.894;16.714;2023-07-20T10:07:01;1.42;;;1.17;;
18174;SDS011;9212;50.894;16.714;2023-07-20T10:09:32;13.80;;;2.47;;
18174;SDS011;9212;50.894;16.714;2023-07-20T10:12:01;5.20;;;1.63;;
18174;SDS011;9212;50.894;16.714;2023-07-20T10:14:28;11.38;;;2.90;;
18174;SDS011;9212;50.894;16.714;2023-07-20T10:16:59;2.13;;;1.30;;
18174;SDS011;9212;50.894;16.714;2023-07-20T10:19:30;18.63;;;2.80;;
18174;SDS011;9212;50.894;16.714;2023-07-20T10:22:00;15.30;;;2.20;;
18174;SDS011;9212;50.894;16.714;2023-07-20T10:24:28;7.93;;;1.73;;
18174;SDS011;9212;50.894;16.714;2023-07-20T10:26:57;3.90;;;1.38;;
18174;SDS011;9212;50.894;16.714;2023-07-20T10:29:24;13.90;;;2.75;;
18174;SDS011;9212;50.894;16.714;2023-07-20T10:31:53;2.33;;;1.25;;
18174;SDS011;9212;50.894;16.714;2023-07-20T10:34:21;14.80;;;2.83;;
18174;SDS011;9212;50.894;16.714;2023-07-20T10:36:48;54.58;;;5.47;;
18174;SDS011;9212;50.894;16.714;2023-07-20T10:39:23;12.57;;;2.75;;
18174;SDS011;9212;50.894;16.714;2023-07-20T10:42:00;24.00;;;2.95;;
18174;SDS011;9212;50.894;16.714;2023-07-20T10:44:28;9.80;;;2.30;;
18174;SDS011;9212;50.894;16.714;2023-07-20T10:46:59;13.80;;;2.03;;
18174;SDS011;9212;50.894;16.714;2023-07-20T10:49:27;6.72;;;1.50;;
18174;SDS011;9212;50.894;16.714;2023-07-20T10:51:58;13.60;;;1.95;;
18174;SDS011;9212;50.894;16.714;2023-07-20T10:54:34;4.63;;;1.17;;
18174;SDS011;9212;50.894;16.714;2023-07-20T10:59:49;5.47;;;1.10;;
18174;SDS011;9212;50.894;16.714;2023-07-20T11:02:17;0.80;;;0.80;;
18174;SDS011;9212;50.894;16.714;2023-07-20T11:04:45;5.60;;;1.00;;
18174;SDS011;9212;50.894;16.714;2023-07-20T11:07:15;5.47;;;1.05;;
18174;SDS011;9212;50.894;16.714;2023-07-20T11:09:42;6.80;;;1.40;;
18174;SDS011;9212;50.894;16.714;2023-07-20T11:12:10;5.40;;;1.17;;
18174;SDS011;9212;50.894;16.714;2023-07-20T11:14:40;5.15;;;1.30;;
18174;SDS011;9212;50.894;16.714;2023-07-20T11:17:12;9.98;;;1.65;;
18174;SDS011;9212;50.894;16.714;2023-07-20T11:19:40;20.98;;;1.73;;
18174;SDS011;9212;50.894;16.714;2023-07-20T11:22:07;3.97;;;1.40;;
18174;SDS011;9212;50.894;16.714;2023-07-20T11:24:37;8.15;;;1.40;;
18174;SDS011;9212;50.894;16.714;2023-07-20T11:27:05;5.88;;;1.23;;
18174;SDS011;9212;50.894;16.714;2023-07-20T11:29:32;22.63;;;2.67;;
18174;SDS011;9212;50.894;16.714;2023-07-20T11:32:00;4.10;;;1.50;;
18174;SDS011;9212;50.894;16.714;2023-07-20T11:34:29;1.48;;;1.38;;
18174;SDS011;9212;50.894;16.714;2023-07-20T11:36:57;3.20;;;0.95;;
18174;SDS011;9212;50.894;16.714;2023-07-20T11:39:24;1.73;;;1.00;;
18174;SDS011;9212;50.894;16.714;2023-07-20T11:41:52;3.08;;;1.23;;
18174;SDS011;9212;50.894;16.714;2023-07-20T11:44:20;8.70;;;1.15;;
18174;SDS011;9212;50.894;16.714;2023-07-20T11:46:59;7.57;;;1.73;;
18174;SDS011;9212;50.894;16.714;2023-07-20T11:49:28;8.32;;;1.20;;
18174;SDS011;9212;50.894;16.714;2023-07-20T11:51:56;4.40;;;1.30;;
18174;SDS011;9212;50.894;16.714;2023-07-20T11:54:25;2.15;;;1.20;;
18174;SDS011;9212;50.894;16.714;2023-07-20T11:56:53;2.72;;;1.33;;
18174;SDS011;9212;50.894;16.714;2023-07-20T11:59:21;8.32;;;1.27;;
18174;SDS011;9212;50.894;16.714;2023-07-20T12:01:48;10.15;;;1.50;;
18174;SDS011;9212;50.894;16.714;2023-07-20T12:04:16;14.15;;;1.48;;
18174;SDS011;9212;50.894;16.714;2023-07-20T12:06:46;12.65;;;2.45;;
18174;SDS011;9212;50.894;16.714;2023-07-20T12:09:13;7.63;;;1.58;;
18174;SDS011;9212;50.894;16.714;2023-07-20T12:11:42;9.93;;;1.40;;
18174;SDS011;9212;50.894;16.714;2023-07-20T12:14:10;1.98;;;1.10;;
18174;SDS011;9212;50.894;16.714;2023-07-20T12:16:37;1.45;;;1.20;;
18174;SDS011;9212;50.894;16.714;2023-07-20T12:19:05;9.25;;;1.63;;
18174;SDS011;9212;50.894;16.714;2023-07-20T12:21:33;2.78;;;1.05;;
18174;SDS011;9212;50.894;16.714;2023-07-20T12:24:03;0.90;;;0.90;;
18174;SDS011;9212;50.894;16.714;2023-07-20T12:26:30;1.13;;;1.02;;
18174;SDS011;9212;50.894;16.714;2023-07-20T12:28:58;1.67;;;0.85;;
18174;SDS011;9212;50.894;16.714;2023-07-20T12:31:26;3.88;;;1.20;;
18174;SDS011;9212;50.894;16.714;2023-07-20T12:33:54;2.15;;;1.30;;
18174;SDS011;9212;50.894;16.714;2023-07-20T12:36:22;4.32;;;1.40;;
18174;SDS011;9212;50.894;16.714;2023-07-20T12:38:49;2.35;;;1.20;;
18174;SDS011;9212;50.894;16.714;2023-07-20T12:41:18;3.65;;;1.20;;
18174;SDS011;9212;50.894;16.714;2023-07-20T12:43:45;5.20;;;1.45;;
18174;SDS011;9212;50.894;16.714;2023-07-20T12:46:12;4.35;;;1.10;;
18174;SDS011;9212;50.894;16.714;2023-07-20T12:48:40;3.55;;;1.00;;
18174;SDS011;9212;50.894;16.714;2023-07-20T12:51:08;2.75;;;1.10;;
18174;SDS011;9212;50.894;16.714;2023-07-20T12:53:37;13.77;;;1.80;;
18174;SDS011;9212;50.894;16.714;2023-07-20T12:56:04;5.68;;;1.73;;
18174;SDS011;9212;50.894;16.714;2023-07-20T12:58:33;2.67;;;1.00;;
18174;SDS011;9212;50.894;16.714;2023-07-20T13:01:01;7.13;;;1.42;;
18174;SDS011;9212;50.894;16.714;2023-07-20T13:03:29;2.05;;;1.40;;
18174;SDS011;9212;50.894;16.714;2023-07-20T13:05:56;3.00;;;1.20;;
18174;SDS011;9212;50.894;16.714;2023-07-20T13:08:23;1.20;;;1.10;;
18174;SDS011;9212;50.894;16.714;2023-07-20T13:10:52;2.97;;;0.95;;
18174;SDS011;9212;50.894;16.714;2023-07-20T13:13:19;1.98;;;1.33;;
18174;SDS011;9212;50.894;16.714;2023-07-20T13:15:47;1.52;;;1.25;;
18174;SDS011;9212;50.894;16.714;2023-07-20T13:18:15;1.15;;;1.02;;
18174;SDS011;9212;50.894;16.714;2023-07-20T13:20:43;11.85;;;1.38;;
18174;SDS011;9212;50.894;16.714;2023-07-20T13:23:10;1.30;;;1.20;;
18174;SDS011;9212;50.894;16.714;2023-07-20T13:25:38;2.90;;;1.30;;
18174;SDS011;9212;50.894;16.714;2023-07-20T13:28:05;1.20;;;1.10;;
18174;SDS011;9212;50.894;16.714;2023-07-20T13:30:36;4.22;;;1.00;;
18174;SDS011;9212;50.894;16.714;2023-07-20T13:33:06;0.82;;;0.82;;
18174;SDS011;9212;50.894;16.714;2023-07-20T13:35:43;2.40;;;1.00;;
18174;SDS011;9212;50.894;16.714;2023-07-20T13:38:20;6.47;;;1.15;;
18174;SDS011;9212;50.894;16.714;2023-07-20T13:40:48;0.93;;;0.88;;
18174;SDS011;9212;50.894;16.714;2023-07-20T13:43:15;6.75;;;1.10;;
18174;SDS011;9212;50.894;16.714;2023-07-20T13:45:46;3.47;;;1.23;;
18174;SDS011;9212;50.894;16.714;2023-07-20T13:48:36;4.00;;;1.20;;
18174;SDS011;9212;50.894;16.714;2023-07-20T13:51:06;3.17;;;1.45;;
18174;SDS011;9212;50.894;16.714;2023-07-20T13:53:42;8.40;;;1.38;;
18174;SDS011;9212;50.894;16.714;2023-07-20T13:56:09;1.65;;;1.40;;
18174;SDS011;9212;50.894;16.714;2023-07-20T13:58:39;3.45;;;1.30;;
18174;SDS011;9212;50.894;16.714;2023-07-20T14:01:11;2.47;;;1.20;;
18174;SDS011;9212;50.894;16.714;2023-07-20T14:03:39;1.75;;;1.10;;
18174;SDS011;9212;50.894;16.714;2023-07-20T14:06:07;6.70;;;1.95;;
18174;SDS011;9212;50.894;16.714;2023-07-20T14:08:34;2.35;;;1.25;;
18174;SDS011;9212;50.894;16.714;2023-07-20T14:11:04;1.02;;;1.02;;
18174;SDS011;9212;50.894;16.714;2023-07-20T14:13:35;4.28;;;0.90;;
18174;SDS011;9212;50.894;16.714;2023-07-20T14:16:08;2.78;;;1.10;;
18174;SDS011;9212;50.894;16.714;2023-07-20T14:18:48;5.05;;;1.02;;
18174;SDS011;9212;50.894;16.714;2023-07-20T14:21:31;8.43;;;1.35;;
18174;SDS011;9212;50.894;16.714;2023-07-20T14:23:58;1.58;;;1.17;;
18174;SDS011;9212;50.894;16.714;2023-07-20T14:26:25;3.33;;;1.00;;
18174;SDS011;9212;50.894;16.714;2023-07-20T14:28:55;2.10;;;1.27;;
18174;SDS011;9212;50.894;16.714;2023-07-20T14:31:23;1.13;;;1.00;;
18174;SDS011;9212;50.894;16.714;2023-07-20T14:33:51;1.45;;;1.00;;
18174;SDS011;9212;50.894;16.714;2023-07-20T14:36:18;1.20;;;1.15;;
18174;SDS011;9212;50.894;16.714;2023-07-20T14:38:45;1.67;;;0.93;;
18174;SDS011;9212;50.894;16.714;2023-07-20T14:41:13;0.90;;;0.90;;
18174;SDS011;9212;50.894;16.714;2023-07-20T14:43:54;1.77;;;1.00;;
18174;SDS011;9212;50.894;16.714;2023-07-20T14:46:24;3.55;;;0.90;;
18174;SDS011;9212;50.894;16.714;2023-07-20T14:48:57;2.45;;;0.90;;
18174;SDS011;9212;50.894;16.714;2023-07-20T14:51:27;5.40;;;1.20;;
18174;SDS011;9212;50.894;16.714;2023-07-20T14:53:58;7.03;;;1.60;;
18174;SDS011;9212;50.894;16.714;2023-07-20T14:56:32;3.05;;;1.27;;